EDW028 LSZH-ZPPP
Flight info
| Callsign | EDW028 |
|---|---|
| Flight time | N/A |
| Altitude | 37000 |
| Route | DEGES Z2 TUNUM DCT UMVEG DCT DIMLO DCT INVED DCT SOKRU DCT DINRO DCT UDROS UM859 KARDE UN644 ROLIN N644 TETRO DCT BARAD M747 SUBUT T923 ERLEV M11 AMOKU/N0485F390 M11 RODAR A909 LEMOD N644 DI A466 SULOM M890 LKN A201 PPT/N0489F410 A201 LSO A599 LINSO/K0906S1250 A599 GULOT GULOT1A |
| Aircraft | A359/H-SDE2E3GHIJ3J4J5LM1ORWXY/LB1D1 |
Departure
| Time | N/A |
|---|---|
| Airport | Zürich Airport (LSZH) |
Arrival
| Time | 2026-05-04 09:28 |
|---|---|
| Airport | Kunming Changshui International Airport (ZPPP) |
| Time | Latitude | Longitude | Altitude | Speed | Heading |
|---|---|---|---|---|---|
| 2026-05-04 05:48 | 31.38374 | 73.36864 | 38774 ft | 529 kts | 82° |
| 2026-05-04 05:48 | 31.38822 | 73.41134 | 38769 ft | 529 kts | 82° |
| 2026-05-04 05:49 | 31.39716 | 73.49688 | 38776 ft | 529 kts | 82° |
| 2026-05-04 05:49 | 31.40604 | 73.58238 | 38775 ft | 529 kts | 82° |
| 2026-05-04 05:51 | 31.44086 | 73.92399 | 38795 ft | 528 kts | 83° |
| 2026-05-04 05:52 | 31.44660 | 74.00956 | 38793 ft | 527 kts | 92° |
| 2026-05-04 05:52 | 31.43603 | 74.09440 | 38805 ft | 525 kts | 102° |
| 2026-05-04 05:54 | 31.37266 | 74.42755 | 38833 ft | 526 kts | 104° |
| 2026-05-04 05:55 | 31.35676 | 74.51138 | 38836 ft | 528 kts | 104° |
| 2026-05-04 05:55 | 31.34055 | 74.59532 | 38842 ft | 528 kts | 106° |
| 2026-05-04 05:56 | 31.32038 | 74.67811 | 38853 ft | 528 kts | 109° |
| 2026-05-04 05:56 | 31.29895 | 74.75976 | 38856 ft | 529 kts | 109° |
| 2026-05-04 05:57 | 31.27781 | 74.84230 | 38854 ft | 530 kts | 108° |
| 2026-05-04 05:57 | 31.25701 | 74.92522 | 38852 ft | 530 kts | 108° |
| 2026-05-04 05:58 | 31.23632 | 75.00806 | 38852 ft | 531 kts | 109° |
| 2026-05-04 05:58 | 31.21553 | 75.09097 | 38850 ft | 531 kts | 109° |
| 2026-05-04 05:59 | 31.19468 | 75.17377 | 38848 ft | 530 kts | 109° |
| 2026-05-04 05:59 | 31.17396 | 75.25576 | 38851 ft | 529 kts | 109° |
| 2026-05-04 06:00 | 31.15307 | 75.33819 | 38851 ft | 527 kts | 110° |
| 2026-05-04 06:00 | 31.13222 | 75.42021 | 38851 ft | 526 kts | 110° |
| 2026-05-04 06:01 | 31.11133 | 75.50182 | 38855 ft | 523 kts | 111° |
| 2026-05-04 06:03 | 31.00542 | 75.81492 | 38858 ft | 518 kts | 116° |
| 2026-05-04 06:05 | 30.88750 | 76.16558 | 38858 ft | 516 kts | 116° |
| 2026-05-04 06:06 | 30.86118 | 76.24325 | 38860 ft | 515 kts | 116° |
| 2026-05-04 06:06 | 30.83480 | 76.32092 | 38866 ft | 515 kts | 116° |
| 2026-05-04 06:07 | 30.80842 | 76.39842 | 38858 ft | 515 kts | 116° |
| 2026-05-04 06:07 | 30.78199 | 76.47585 | 38870 ft | 514 kts | 116° |
| 2026-05-04 06:08 | 30.75575 | 76.55260 | 38875 ft | 514 kts | 116° |
| 2026-05-04 06:08 | 30.72928 | 76.62982 | 38878 ft | 514 kts | 116° |
| 2026-05-04 06:09 | 30.70278 | 76.70701 | 38883 ft | 514 kts | 116° |
| 2026-05-04 06:11 | 30.54510 | 76.97730 | 38882 ft | 508 kts | 132° |
| 2026-05-04 06:13 | 30.36150 | 77.22067 | 38894 ft | 487 kts | 156° |
| 2026-05-04 06:14 | 30.15143 | 77.34363 | 38880 ft | 483 kts | 159° |
| 2026-05-04 06:15 | 30.09132 | 77.37853 | 38880 ft | 483 kts | 159° |
| 2026-05-04 06:15 | 30.03136 | 77.41339 | 38879 ft | 482 kts | 159° |
| 2026-05-04 06:16 | 29.97329 | 77.45286 | 38880 ft | 489 kts | 150° |
| 2026-05-04 06:16 | 29.91931 | 77.49989 | 38878 ft | 489 kts | 148° |
| 2026-05-04 06:17 | 29.86571 | 77.54834 | 38880 ft | 489 kts | 148° |
| 2026-05-04 06:17 | 29.81219 | 77.59670 | 38879 ft | 488 kts | 148° |
| 2026-05-04 06:18 | 29.75862 | 77.64479 | 38883 ft | 488 kts | 148° |
| 2026-05-04 06:20 | 29.54377 | 77.83644 | 38880 ft | 489 kts | 148° |
| 2026-05-04 06:21 | 29.40932 | 77.95587 | 38874 ft | 490 kts | 149° |
| 2026-05-04 06:22 | 29.35526 | 78.00377 | 38877 ft | 491 kts | 149° |
| 2026-05-04 06:25 | 28.97680 | 78.33729 | 38876 ft | 490 kts | 149° |
| 2026-05-04 06:26 | 28.92272 | 78.38470 | 38879 ft | 490 kts | 149° |
| 2026-05-04 06:26 | 28.86857 | 78.43209 | 38881 ft | 490 kts | 150° |
| 2026-05-04 06:27 | 28.73374 | 78.54984 | 38883 ft | 489 kts | 150° |
| 2026-05-04 06:28 | 28.67966 | 78.59695 | 38883 ft | 489 kts | 150° |
| 2026-05-04 06:28 | 28.62561 | 78.64397 | 38881 ft | 488 kts | 150° |
| 2026-05-04 06:29 | 28.57158 | 78.69091 | 38880 ft | 488 kts | 150° |
| 2026-05-04 06:29 | 28.51756 | 78.73779 | 38881 ft | 488 kts | 150° |
| 2026-05-04 06:30 | 28.46464 | 78.78557 | 38880 ft | 494 kts | 144° |
| 2026-05-04 06:30 | 28.41517 | 78.84011 | 38872 ft | 496 kts | 143° |
| 2026-05-04 06:31 | 28.36639 | 78.89590 | 38874 ft | 497 kts | 142° |
| 2026-05-04 06:31 | 28.31779 | 78.95164 | 38872 ft | 496 kts | 142° |
| 2026-05-04 06:33 | 28.13118 | 79.16370 | 38864 ft | 497 kts | 143° |
| 2026-05-04 06:34 | 28.08222 | 79.21912 | 38864 ft | 497 kts | 143° |
| 2026-05-04 06:34 | 28.03323 | 79.27449 | 38858 ft | 498 kts | 143° |
| 2026-05-04 06:36 | 27.83693 | 79.49564 | 38860 ft | 499 kts | 143° |
| 2026-05-04 06:37 | 27.78771 | 79.55092 | 38860 ft | 499 kts | 143° |
| 2026-05-04 06:37 | 27.73845 | 79.60616 | 38859 ft | 499 kts | 143° |
| 2026-05-04 06:38 | 27.68985 | 79.66239 | 38868 ft | 504 kts | 139° |
| 2026-05-04 06:40 | 27.50870 | 79.90415 | 38868 ft | 504 kts | 138° |
| 2026-05-04 06:40 | 27.46343 | 79.96457 | 38873 ft | 504 kts | 138° |
| 2026-05-04 06:41 | 27.41816 | 80.02487 | 38876 ft | 504 kts | 138° |
| 2026-05-04 06:41 | 27.37287 | 80.08513 | 38876 ft | 504 kts | 138° |
| 2026-05-04 06:42 | 27.32754 | 80.14537 | 38873 ft | 504 kts | 138° |
| 2026-05-04 06:44 | 27.14590 | 80.38587 | 38880 ft | 506 kts | 138° |
| 2026-05-04 06:44 | 27.10021 | 80.44617 | 38880 ft | 507 kts | 138° |
| 2026-05-04 06:45 | 27.05447 | 80.50645 | 38885 ft | 507 kts | 138° |
| 2026-05-04 06:45 | 27.00877 | 80.56659 | 38882 ft | 507 kts | 138° |
| 2026-05-04 06:46 | 26.96321 | 80.62647 | 38881 ft | 508 kts | 138° |
| 2026-05-04 06:46 | 26.91733 | 80.68668 | 38882 ft | 508 kts | 138° |
| 2026-05-04 06:48 | 26.76044 | 80.90335 | 38887 ft | 526 kts | 123° |
| 2026-05-04 06:48 | 26.74636 | 80.94137 | 38887 ft | 534 kts | 114° |
| 2026-05-04 06:50 | 26.66237 | 81.26098 | 38898 ft | 535 kts | 111° |
| 2026-05-04 06:51 | 26.64122 | 81.34085 | 38899 ft | 535 kts | 111° |
| 2026-05-04 06:51 | 26.62019 | 81.42007 | 38900 ft | 534 kts | 111° |
| 2026-05-04 06:52 | 26.59902 | 81.49964 | 38906 ft | 534 kts | 111° |
| 2026-05-04 06:52 | 26.57782 | 81.57919 | 38909 ft | 533 kts | 111° |
| 2026-05-04 06:53 | 26.55660 | 81.65859 | 38910 ft | 533 kts | 111° |
| 2026-05-04 06:53 | 26.53539 | 81.73781 | 38911 ft | 531 kts | 111° |
| 2026-05-04 06:54 | 26.51427 | 81.81649 | 38910 ft | 528 kts | 110° |
| 2026-05-04 06:54 | 26.49326 | 81.89455 | 38915 ft | 526 kts | 110° |
| 2026-05-04 06:55 | 26.47205 | 81.97317 | 38917 ft | 525 kts | 110° |
| 2026-05-04 06:55 | 26.45111 | 82.05062 | 38921 ft | 525 kts | 110° |
| 2026-05-04 06:57 | 26.36572 | 82.36451 | 38902 ft | 531 kts | 110° |
| 2026-05-04 06:58 | 26.34414 | 82.44339 | 38900 ft | 533 kts | 110° |
| 2026-05-04 06:58 | 26.32239 | 82.52274 | 38895 ft | 536 kts | 110° |
| 2026-05-04 06:59 | 26.30062 | 82.60193 | 38886 ft | 539 kts | 110° |
| 2026-05-04 06:59 | 26.27856 | 82.68199 | 38876 ft | 542 kts | 111° |
| 2026-05-04 07:01 | 26.18901 | 83.00502 | 38851 ft | 548 kts | 111° |
| 2026-05-04 07:02 | 26.16640 | 83.08613 | 38841 ft | 548 kts | 111° |
| 2026-05-04 07:02 | 26.14375 | 83.16717 | 38847 ft | 548 kts | 112° |
| 2026-05-04 07:03 | 26.12105 | 83.24816 | 38843 ft | 548 kts | 112° |
| 2026-05-04 07:03 | 26.09831 | 83.32911 | 38841 ft | 547 kts | 112° |
| 2026-05-04 07:04 | 26.07557 | 83.40985 | 38839 ft | 547 kts | 112° |
| 2026-05-04 07:04 | 26.05293 | 83.49007 | 38840 ft | 546 kts | 112° |
| 2026-05-04 07:05 | 26.03012 | 83.57070 | 38838 ft | 546 kts | 112° |
| 2026-05-04 07:05 | 26.00732 | 83.65125 | 38835 ft | 546 kts | 112° |
| 2026-05-04 07:06 | 25.97314 | 83.77190 | 38837 ft | 545 kts | 112° |
| 2026-05-04 07:07 | 25.95033 | 83.85215 | 38849 ft | 544 kts | 112° |
| 2026-05-04 07:09 | 25.85899 | 84.17155 | 38840 ft | 542 kts | 112° |
| 2026-05-04 07:09 | 25.83602 | 84.25144 | 38834 ft | 542 kts | 112° |
| 2026-05-04 07:10 | 25.81307 | 84.33104 | 38845 ft | 541 kts | 112° |
| 2026-05-04 07:12 | 25.72108 | 84.64836 | 38848 ft | 540 kts | 113° |
| 2026-05-04 07:12 | 25.69798 | 84.72760 | 38858 ft | 540 kts | 113° |
| 2026-05-04 07:13 | 25.67483 | 84.80682 | 38855 ft | 539 kts | 113° |
| 2026-05-04 07:13 | 25.65168 | 84.88589 | 38859 ft | 539 kts | 113° |
| 2026-05-04 07:14 | 25.59405 | 85.08329 | 38882 ft | 543 kts | 110° |
| 2026-05-04 07:15 | 25.58560 | 85.12419 | 39102 ft | 545 kts | 106° |
| 2026-05-04 07:15 | 25.57796 | 85.16533 | 39422 ft | 544 kts | 105° |
| 2026-05-04 07:15 | 25.57067 | 85.20640 | 39729 ft | 543 kts | 105° |
| 2026-05-04 07:15 | 25.56353 | 85.24751 | 40023 ft | 542 kts | 104° |
| 2026-05-04 07:16 | 25.55646 | 85.28846 | 40314 ft | 541 kts | 104° |
| 2026-05-04 07:16 | 25.54939 | 85.32935 | 40599 ft | 540 kts | 104° |
| 2026-05-04 07:16 | 25.54229 | 85.37016 | 40829 ft | 540 kts | 104° |
| 2026-05-04 07:16 | 25.53514 | 85.41101 | 40862 ft | 539 kts | 104° |
| 2026-05-04 07:17 | 25.52089 | 85.49195 | 40866 ft | 538 kts | 104° |
| 2026-05-04 07:17 | 25.50652 | 85.57311 | 40872 ft | 537 kts | 104° |
| 2026-05-04 07:18 | 25.49212 | 85.65419 | 40869 ft | 537 kts | 104° |
| 2026-05-04 07:18 | 25.47765 | 85.73542 | 40872 ft | 536 kts | 104° |
| 2026-05-04 07:19 | 25.46563 | 85.80275 | 40871 ft | 536 kts | 104° |
| 2026-05-04 07:19 | 25.45114 | 85.88361 | 40875 ft | 536 kts | 104° |
| 2026-05-04 07:20 | 25.43661 | 85.96445 | 40879 ft | 535 kts | 104° |
| 2026-05-04 07:20 | 25.42204 | 86.04525 | 40880 ft | 535 kts | 104° |
| 2026-05-04 07:22 | 25.36342 | 86.36763 | 40885 ft | 535 kts | 104° |
| 2026-05-04 07:23 | 25.34526 | 86.44704 | 40889 ft | 529 kts | 116° |
| 2026-05-04 07:23 | 25.31651 | 86.52162 | 40891 ft | 526 kts | 118° |
| 2026-05-04 07:24 | 25.28588 | 86.59519 | 40884 ft | 526 kts | 119° |
| 2026-05-04 07:24 | 25.25504 | 86.66854 | 40889 ft | 526 kts | 119° |
| 2026-05-04 07:26 | 25.13250 | 86.96212 | 40890 ft | 527 kts | 118° |
| 2026-05-04 07:27 | 25.10173 | 87.03562 | 40899 ft | 527 kts | 119° |
| 2026-05-04 07:27 | 25.07092 | 87.10908 | 40909 ft | 527 kts | 118° |
| 2026-05-04 07:28 | 25.04024 | 87.18209 | 40907 ft | 527 kts | 118° |
| 2026-05-04 07:28 | 25.00938 | 87.25543 | 40904 ft | 527 kts | 118° |
| 2026-05-04 07:29 | 24.97844 | 87.32884 | 40900 ft | 527 kts | 118° |
| 2026-05-04 07:29 | 24.94748 | 87.40216 | 40896 ft | 527 kts | 119° |
| 2026-05-04 07:30 | 24.91651 | 87.47541 | 40894 ft | 528 kts | 119° |
| 2026-05-04 07:30 | 24.88546 | 87.54870 | 40892 ft | 528 kts | 118° |
| 2026-05-04 07:31 | 24.85440 | 87.62191 | 40893 ft | 528 kts | 118° |
| 2026-05-04 07:33 | 24.73123 | 87.91473 | 40884 ft | 528 kts | 117° |
| 2026-05-04 07:33 | 24.70115 | 87.98841 | 40887 ft | 527 kts | 118° |
| 2026-05-04 07:34 | 24.67098 | 88.06184 | 40885 ft | 527 kts | 118° |
| 2026-05-04 07:34 | 24.64045 | 88.13516 | 40887 ft | 527 kts | 118° |
| 2026-05-04 07:35 | 24.60982 | 88.20827 | 40886 ft | 527 kts | 118° |
| 2026-05-04 07:35 | 24.57939 | 88.28093 | 40886 ft | 526 kts | 118° |
| 2026-05-04 07:36 | 24.54879 | 88.35397 | 40885 ft | 526 kts | 118° |
| 2026-05-04 07:38 | 24.43258 | 88.64871 | 40888 ft | 530 kts | 107° |
| 2026-05-04 07:38 | 24.41587 | 88.72758 | 40884 ft | 531 kts | 104° |
| 2026-05-04 07:39 | 24.40043 | 88.80623 | 40893 ft | 531 kts | 104° |
| 2026-05-04 07:39 | 24.38483 | 88.88538 | 40891 ft | 530 kts | 104° |
| 2026-05-04 07:40 | 24.36898 | 88.96447 | 40887 ft | 530 kts | 104° |
| 2026-05-04 07:40 | 24.35303 | 89.04341 | 40896 ft | 530 kts | 104° |
| 2026-05-04 07:41 | 24.33703 | 89.12231 | 40894 ft | 530 kts | 104° |
| 2026-05-04 07:41 | 24.32099 | 89.20119 | 40892 ft | 529 kts | 104° |
| 2026-05-04 07:42 | 24.30494 | 89.27993 | 40896 ft | 529 kts | 104° |
| 2026-05-04 07:42 | 24.28883 | 89.35873 | 40898 ft | 529 kts | 104° |
| 2026-05-04 07:43 | 24.27281 | 89.43690 | 40896 ft | 529 kts | 104° |
| 2026-05-04 07:43 | 24.25666 | 89.51551 | 40900 ft | 529 kts | 104° |
| 2026-05-04 07:44 | 24.24045 | 89.59419 | 40902 ft | 529 kts | 104° |
| 2026-05-04 07:44 | 24.22421 | 89.67275 | 40903 ft | 528 kts | 104° |
| 2026-05-04 07:45 | 24.20796 | 89.75120 | 40908 ft | 528 kts | 104° |
| 2026-05-04 07:45 | 24.19166 | 89.82962 | 40906 ft | 528 kts | 104° |
| 2026-05-04 07:46 | 24.17541 | 89.90765 | 40907 ft | 528 kts | 104° |
| 2026-05-04 07:46 | 24.15902 | 89.98610 | 40908 ft | 528 kts | 104° |
| 2026-05-04 07:47 | 24.14262 | 90.06443 | 40915 ft | 528 kts | 104° |
| 2026-05-04 07:49 | 24.07666 | 90.37724 | 40919 ft | 528 kts | 104° |
| 2026-05-04 07:49 | 24.06006 | 90.45545 | 40916 ft | 528 kts | 104° |
| 2026-05-04 07:50 | 24.04329 | 90.53377 | 40915 ft | 528 kts | 104° |
| 2026-05-04 07:50 | 24.02649 | 90.61190 | 40913 ft | 527 kts | 104° |
| 2026-05-04 07:51 | 24.00977 | 90.68956 | 40909 ft | 527 kts | 104° |
| 2026-05-04 07:51 | 23.99290 | 90.76776 | 40907 ft | 527 kts | 104° |
| 2026-05-04 07:52 | 23.97604 | 90.84574 | 40902 ft | 527 kts | 104° |
| 2026-05-04 07:52 | 23.95912 | 90.92379 | 40904 ft | 526 kts | 104° |
| 2026-05-04 07:54 | 23.89134 | 91.23440 | 40912 ft | 525 kts | 104° |
| 2026-05-04 07:55 | 23.87511 | 91.31227 | 40912 ft | 525 kts | 103° |
| 2026-05-04 07:55 | 23.85983 | 91.39034 | 40908 ft | 525 kts | 103° |
| 2026-05-04 07:56 | 23.84448 | 91.46829 | 40908 ft | 525 kts | 103° |
| 2026-05-04 07:56 | 23.82891 | 91.54621 | 40911 ft | 525 kts | 103° |
| 2026-05-04 07:57 | 23.81334 | 91.62349 | 40919 ft | 524 kts | 103° |
| 2026-05-04 07:57 | 23.79762 | 91.70123 | 40921 ft | 524 kts | 103° |
| 2026-05-04 07:58 | 23.78187 | 91.77898 | 40931 ft | 524 kts | 103° |
| 2026-05-04 07:58 | 23.76610 | 91.85664 | 40935 ft | 523 kts | 103° |
| 2026-05-04 07:59 | 23.75031 | 91.93420 | 40942 ft | 523 kts | 103° |
| 2026-05-04 07:59 | 23.73451 | 92.01163 | 40950 ft | 522 kts | 103° |
| 2026-05-04 08:00 | 23.71877 | 92.08848 | 40960 ft | 522 kts | 104° |
| 2026-05-04 08:02 | 23.65512 | 92.39730 | 40994 ft | 521 kts | 104° |
| 2026-05-04 08:02 | 23.63912 | 92.47448 | 40999 ft | 522 kts | 104° |
| 2026-05-04 08:03 | 23.62305 | 92.55175 | 40989 ft | 521 kts | 103° |
| 2026-05-04 08:03 | 23.60707 | 92.62835 | 41001 ft | 521 kts | 104° |
| 2026-05-04 08:04 | 23.59208 | 92.70574 | 41004 ft | 522 kts | 102° |
| 2026-05-04 08:04 | 23.57810 | 92.78348 | 41007 ft | 522 kts | 102° |
| 2026-05-04 08:05 | 23.56398 | 92.86112 | 41012 ft | 522 kts | 102° |
| 2026-05-04 08:05 | 23.54960 | 92.93877 | 41015 ft | 522 kts | 102° |
| 2026-05-04 08:06 | 23.53510 | 93.01628 | 41019 ft | 522 kts | 102° |
| 2026-05-04 08:06 | 23.52065 | 93.09336 | 41017 ft | 522 kts | 102° |
| 2026-05-04 08:08 | 23.46218 | 93.40314 | 41027 ft | 523 kts | 102° |
| 2026-05-04 08:11 | 23.42374 | 93.74354 | 41021 ft | 524 kts | 96° |
| 2026-05-04 08:11 | 23.41218 | 93.86192 | 40996 ft | 525 kts | 96° |
| 2026-05-04 08:12 | 23.40440 | 93.94097 | 40986 ft | 524 kts | 96° |
| 2026-05-04 08:12 | 23.39658 | 94.01991 | 40979 ft | 524 kts | 96° |
| 2026-05-04 08:13 | 23.38879 | 94.09829 | 40966 ft | 524 kts | 96° |
| 2026-05-04 08:13 | 23.38091 | 94.17721 | 40958 ft | 524 kts | 96° |
| 2026-05-04 08:14 | 23.37300 | 94.25604 | 40950 ft | 524 kts | 96° |
| 2026-05-04 08:16 | 23.34099 | 94.57077 | 40942 ft | 523 kts | 96° |
| 2026-05-04 08:16 | 23.33287 | 94.64950 | 40942 ft | 523 kts | 96° |
| 2026-05-04 08:17 | 23.32473 | 94.72820 | 40944 ft | 523 kts | 96° |
| 2026-05-04 08:17 | 23.31654 | 94.80690 | 40943 ft | 523 kts | 96° |
| 2026-05-04 08:19 | 23.28340 | 95.12158 | 40923 ft | 523 kts | 96° |
| 2026-05-04 08:20 | 23.27503 | 95.20015 | 40922 ft | 523 kts | 96° |
| 2026-05-04 08:20 | 23.26662 | 95.27866 | 40915 ft | 522 kts | 96° |
| 2026-05-04 08:21 | 23.25818 | 95.35712 | 40909 ft | 522 kts | 96° |
| 2026-05-04 08:21 | 23.24971 | 95.43551 | 40904 ft | 522 kts | 96° |
| 2026-05-04 08:22 | 23.24125 | 95.51331 | 40901 ft | 521 kts | 96° |
| 2026-05-04 08:24 | 23.20687 | 95.82619 | 40892 ft | 520 kts | 96° |
| 2026-05-04 08:24 | 23.19819 | 95.90426 | 40889 ft | 519 kts | 96° |
| 2026-05-04 08:25 | 23.18955 | 95.98167 | 40889 ft | 519 kts | 96° |
| 2026-05-04 08:25 | 23.18081 | 96.05966 | 40892 ft | 519 kts | 96° |
| 2026-05-04 08:27 | 23.14556 | 96.37042 | 40905 ft | 517 kts | 97° |
| 2026-05-04 08:28 | 23.13672 | 96.44748 | 40914 ft | 517 kts | 97° |
| 2026-05-04 08:28 | 23.12779 | 96.52499 | 40913 ft | 517 kts | 97° |
| 2026-05-04 08:29 | 23.11881 | 96.60262 | 40918 ft | 517 kts | 97° |
| 2026-05-04 08:31 | 23.08262 | 96.91206 | 40943 ft | 517 kts | 97° |
| 2026-05-04 08:33 | 23.04576 | 97.22189 | 40945 ft | 517 kts | 97° |
| 2026-05-04 08:35 | 23.00834 | 97.53116 | 40922 ft | 517 kts | 97° |
| 2026-05-04 08:35 | 22.99890 | 97.60843 | 40921 ft | 517 kts | 97° |
| 2026-05-04 08:37 | 23.00867 | 97.83738 | 40922 ft | 512 kts | 69° |
| 2026-05-04 08:37 | 23.01856 | 97.86692 | 40925 ft | 512 kts | 68° |
| 2026-05-04 08:38 | 23.04393 | 97.93949 | 40931 ft | 513 kts | 67° |
| 2026-05-04 08:38 | 23.06923 | 98.01197 | 40937 ft | 513 kts | 68° |
| 2026-05-04 08:40 | 23.16837 | 98.30290 | 40946 ft | 514 kts | 68° |
| 2026-05-04 08:41 | 23.19310 | 98.37589 | 40947 ft | 514 kts | 68° |
| 2026-05-04 08:41 | 23.21780 | 98.44884 | 40937 ft | 514 kts | 68° |
| 2026-05-04 08:42 | 23.24233 | 98.52146 | 40941 ft | 514 kts | 68° |
| 2026-05-04 08:42 | 23.26713 | 98.59500 | 40951 ft | 515 kts | 68° |
| 2026-05-04 08:43 | 23.29154 | 98.66755 | 40731 ft | 513 kts | 68° |
| 2026-05-04 08:43 | 23.30382 | 98.70410 | 40489 ft | 515 kts | 68° |
| 2026-05-04 08:43 | 23.31614 | 98.74080 | 40250 ft | 517 kts | 68° |
| 2026-05-04 08:43 | 23.32848 | 98.77756 | 40015 ft | 518 kts | 68° |
| 2026-05-04 08:44 | 23.34084 | 98.81440 | 39780 ft | 519 kts | 68° |
| 2026-05-04 08:44 | 23.35324 | 98.85141 | 39544 ft | 520 kts | 68° |
| 2026-05-04 08:46 | 23.43692 | 99.11383 | 37860 ft | 528 kts | 69° |
| 2026-05-04 08:46 | 23.44856 | 99.15139 | 37593 ft | 529 kts | 69° |
| 2026-05-04 08:46 | 23.46037 | 99.18938 | 37349 ft | 531 kts | 69° |
| 2026-05-04 08:46 | 23.47226 | 99.22759 | 37093 ft | 532 kts | 69° |
| 2026-05-04 08:47 | 23.48415 | 99.26581 | 36855 ft | 533 kts | 69° |
| 2026-05-04 08:47 | 23.49610 | 99.30423 | 36590 ft | 535 kts | 69° |
| 2026-05-04 08:47 | 23.50803 | 99.34260 | 36362 ft | 536 kts | 69° |
| 2026-05-04 08:47 | 23.52006 | 99.38110 | 36110 ft | 536 kts | 69° |
| 2026-05-04 08:48 | 23.53488 | 99.41834 | 35867 ft | 535 kts | 59° |
| 2026-05-04 08:48 | 23.55230 | 99.45417 | 35640 ft | 536 kts | 58° |
| 2026-05-04 08:48 | 23.57039 | 99.48970 | 35403 ft | 537 kts | 58° |
| 2026-05-04 08:48 | 23.58890 | 99.52517 | 35172 ft | 538 kts | 57° |
| 2026-05-04 08:49 | 23.60732 | 99.56015 | 34945 ft | 540 kts | 57° |
| 2026-05-04 08:50 | 23.71984 | 99.77536 | 33524 ft | 548 kts | 57° |
| 2026-05-04 08:50 | 23.73865 | 99.81158 | 33263 ft | 547 kts | 58° |
| 2026-05-04 08:51 | 23.75738 | 99.84771 | 33009 ft | 547 kts | 58° |
| 2026-05-04 08:51 | 23.77613 | 99.88393 | 32789 ft | 547 kts | 58° |
| 2026-05-04 08:51 | 23.79486 | 99.92010 | 32533 ft | 548 kts | 57° |
| 2026-05-04 08:51 | 23.81364 | 99.95635 | 32289 ft | 548 kts | 57° |
| 2026-05-04 08:52 | 23.83217 | 99.99214 | 32043 ft | 548 kts | 57° |
| 2026-05-04 08:52 | 23.85096 | 100.02847 | 31808 ft | 549 kts | 57° |
| 2026-05-04 08:52 | 23.86969 | 100.06474 | 31561 ft | 549 kts | 57° |
| 2026-05-04 08:52 | 23.88848 | 100.10113 | 31337 ft | 549 kts | 57° |
| 2026-05-04 08:53 | 23.90729 | 100.13761 | 31099 ft | 549 kts | 57° |
| 2026-05-04 08:54 | 24.03846 | 100.39272 | 29413 ft | 548 kts | 57° |
| 2026-05-04 08:55 | 24.05103 | 100.41721 | 29241 ft | 546 kts | 57° |
| 2026-05-04 08:55 | 24.06938 | 100.45297 | 28999 ft | 544 kts | 57° |
| 2026-05-04 08:55 | 24.08787 | 100.48906 | 28728 ft | 542 kts | 57° |
| 2026-05-04 08:55 | 24.10629 | 100.52502 | 28476 ft | 540 kts | 57° |
| 2026-05-04 08:57 | 24.23177 | 100.77467 | 26758 ft | 528 kts | 58° |
| 2026-05-04 09:01 | 24.47240 | 101.25816 | 23615 ft | 505 kts | 58° |
| 2026-05-04 09:01 | 24.48913 | 101.29196 | 23365 ft | 503 kts | 59° |
| 2026-05-04 09:01 | 24.50579 | 101.32564 | 23219 ft | 501 kts | 59° |
| 2026-05-04 09:01 | 24.52240 | 101.35925 | 22959 ft | 499 kts | 59° |
| 2026-05-04 09:02 | 24.53892 | 101.39272 | 22706 ft | 497 kts | 59° |
| 2026-05-04 09:02 | 24.55541 | 101.42612 | 22477 ft | 496 kts | 59° |
| 2026-05-04 09:02 | 24.57178 | 101.45933 | 22216 ft | 493 kts | 59° |
| 2026-05-04 09:02 | 24.58804 | 101.49233 | 21967 ft | 489 kts | 58° |
| 2026-05-04 09:03 | 24.60402 | 101.52531 | 21723 ft | 488 kts | 61° |
| 2026-05-04 09:03 | 24.61698 | 101.55982 | 21482 ft | 489 kts | 70° |
| 2026-05-04 09:03 | 24.62446 | 101.59627 | 21241 ft | 488 kts | 82° |
| 2026-05-04 09:03 | 24.62719 | 101.63285 | 21018 ft | 486 kts | 86° |
| 2026-05-04 09:04 | 24.62881 | 101.66994 | 20781 ft | 485 kts | 87° |
| 2026-05-04 09:04 | 24.63039 | 101.70696 | 20548 ft | 483 kts | 86° |
| 2026-05-04 09:04 | 24.63201 | 101.74367 | 20323 ft | 480 kts | 86° |
| 2026-05-04 09:04 | 24.63366 | 101.78021 | 20089 ft | 478 kts | 86° |
| 2026-05-04 09:05 | 24.63532 | 101.81661 | 19860 ft | 476 kts | 86° |
| 2026-05-04 09:05 | 24.63698 | 101.85288 | 19642 ft | 474 kts | 86° |
| 2026-05-04 09:05 | 24.63864 | 101.88902 | 19407 ft | 472 kts | 86° |
| 2026-05-04 09:05 | 24.64028 | 101.92497 | 19196 ft | 470 kts | 86° |
| 2026-05-04 09:06 | 24.64190 | 101.96071 | 18967 ft | 468 kts | 86° |
| 2026-05-04 09:07 | 24.65298 | 102.20681 | 17280 ft | 453 kts | 85° |
| 2026-05-04 09:08 | 24.65699 | 102.24101 | 17032 ft | 450 kts | 77° |
| 2026-05-04 09:08 | 24.66604 | 102.27371 | 16795 ft | 446 kts | 66° |
| 2026-05-04 09:08 | 24.68006 | 102.30381 | 16541 ft | 440 kts | 55° |
| 2026-05-04 09:08 | 24.69819 | 102.33085 | 16308 ft | 436 kts | 48° |
| 2026-05-04 09:09 | 24.71745 | 102.35648 | 16074 ft | 434 kts | 47° |
| 2026-05-04 09:09 | 24.73674 | 102.38195 | 15838 ft | 433 kts | 47° |
| 2026-05-04 09:09 | 24.75594 | 102.40740 | 15600 ft | 431 kts | 47° |
| 2026-05-04 09:09 | 24.77497 | 102.43274 | 15354 ft | 429 kts | 48° |
| 2026-05-04 09:10 | 24.79395 | 102.45806 | 15138 ft | 427 kts | 48° |
| 2026-05-04 09:10 | 24.81284 | 102.48328 | 14903 ft | 425 kts | 48° |
| 2026-05-04 09:10 | 24.83160 | 102.50837 | 14674 ft | 424 kts | 48° |
| 2026-05-04 09:10 | 24.85026 | 102.53333 | 14448 ft | 422 kts | 48° |
| 2026-05-04 09:11 | 24.87033 | 102.55673 | 14227 ft | 417 kts | 39° |
| 2026-05-04 09:11 | 24.89238 | 102.57669 | 13993 ft | 414 kts | 35° |
| 2026-05-04 09:11 | 24.91502 | 102.59611 | 13726 ft | 412 kts | 35° |
| 2026-05-04 09:11 | 24.93763 | 102.61549 | 13484 ft | 410 kts | 36° |
| 2026-05-04 09:12 | 24.96008 | 102.63480 | 13234 ft | 408 kts | 36° |
| 2026-05-04 09:12 | 24.98237 | 102.65405 | 12981 ft | 406 kts | 36° |
| 2026-05-04 09:14 | 25.13583 | 102.78696 | 11808 ft | 397 kts | 36° |
| 2026-05-04 09:14 | 25.15732 | 102.80563 | 11807 ft | 386 kts | 36° |
| 2026-05-04 09:14 | 25.17777 | 102.82340 | 11820 ft | 362 kts | 36° |
| 2026-05-04 09:14 | 25.19695 | 102.84012 | 11821 ft | 340 kts | 36° |
| 2026-05-04 09:15 | 25.21497 | 102.85585 | 11823 ft | 320 kts | 36° |
| 2026-05-04 09:15 | 25.23207 | 102.87070 | 11815 ft | 308 kts | 36° |
| 2026-05-04 09:15 | 25.24892 | 102.88533 | 11807 ft | 308 kts | 35° |
| 2026-05-04 09:15 | 25.26574 | 102.89992 | 11801 ft | 308 kts | 35° |
| 2026-05-04 09:17 | 25.40034 | 103.01718 | 11751 ft | 308 kts | 36° |
| 2026-05-04 09:18 | 25.41720 | 103.03192 | 11746 ft | 308 kts | 35° |
| 2026-05-04 09:18 | 25.43406 | 103.04663 | 11736 ft | 308 kts | 35° |
| 2026-05-04 09:18 | 25.45067 | 103.06110 | 11723 ft | 308 kts | 36° |
| 2026-05-04 09:18 | 25.46673 | 103.07692 | 11724 ft | 312 kts | 47° |
| 2026-05-04 09:19 | 25.47613 | 103.09853 | 11731 ft | 315 kts | 77° |
| 2026-05-04 09:19 | 25.47512 | 103.12193 | 11751 ft | 299 kts | 108° |
| 2026-05-04 09:19 | 25.46469 | 103.14086 | 11738 ft | 281 kts | 134° |
| 2026-05-04 09:19 | 25.45140 | 103.15596 | 11718 ft | 267 kts | 136° |
| 2026-05-04 09:20 | 25.43826 | 103.16972 | 11707 ft | 252 kts | 144° |
| 2026-05-04 09:20 | 25.42333 | 103.17798 | 11715 ft | 231 kts | 170° |
| 2026-05-04 09:20 | 25.40797 | 103.17855 | 11715 ft | 216 kts | 195° |
| 2026-05-04 09:20 | 25.39434 | 103.17235 | 11721 ft | 210 kts | 218° |
| 2026-05-04 09:21 | 25.38286 | 103.16283 | 11716 ft | 209 kts | 223° |
| 2026-05-04 09:21 | 25.37150 | 103.15275 | 11731 ft | 209 kts | 222° |
| 2026-05-04 09:21 | 25.36011 | 103.14276 | 11720 ft | 209 kts | 222° |
| 2026-05-04 09:21 | 25.34874 | 103.13275 | 11731 ft | 209 kts | 222° |
| 2026-05-04 09:22 | 25.33742 | 103.12278 | 11738 ft | 208 kts | 222° |
| 2026-05-04 09:22 | 25.32607 | 103.11279 | 11739 ft | 209 kts | 222° |
| 2026-05-04 09:22 | 25.31476 | 103.10282 | 11574 ft | 208 kts | 222° |
| 2026-05-04 09:22 | 25.30342 | 103.09289 | 11325 ft | 208 kts | 222° |
| 2026-05-04 09:23 | 25.29200 | 103.08289 | 11047 ft | 210 kts | 222° |
| 2026-05-04 09:23 | 25.28047 | 103.07278 | 10758 ft | 213 kts | 221° |
| 2026-05-04 09:23 | 25.26891 | 103.06266 | 10517 ft | 210 kts | 221° |
| 2026-05-04 09:23 | 25.25752 | 103.05270 | 10221 ft | 206 kts | 221° |
| 2026-05-04 09:25 | 25.19352 | 102.99668 | 8690 ft | 145 kts | 223° |
| 2026-05-04 09:25 | 25.18554 | 102.98969 | 8495 ft | 147 kts | 222° |
| 2026-05-04 09:26 | 25.17761 | 102.98276 | 8296 ft | 147 kts | 221° |
| 2026-05-04 09:26 | 25.16964 | 102.97580 | 8119 ft | 145 kts | 223° |
| 2026-05-04 09:26 | 25.16177 | 102.96891 | 7916 ft | 144 kts | 223° |
| 2026-05-04 09:26 | 25.15388 | 102.96199 | 7685 ft | 145 kts | 221° |
| 2026-05-04 09:27 | 25.14589 | 102.95500 | 7450 ft | 147 kts | 220° |
| 2026-05-04 09:27 | 25.13791 | 102.94806 | 7236 ft | 145 kts | 220° |
| 2026-05-04 09:27 | 25.13022 | 102.94132 | 7041 ft | 139 kts | 219° |
| 2026-05-04 09:27 | 25.12276 | 102.93481 | 6914 ft | 132 kts | 218° |
| 2026-05-04 09:28 | 25.11671 | 102.92952 | 6926 ft | 75 kts | 219° |
| 2026-05-04 09:28 | 25.11418 | 102.92727 | 6916 ft | 40 kts | 216° |
| 2026-05-04 09:28 | 25.11194 | 102.92631 | 6922 ft | 19 kts | 190° |
| 2026-05-04 09:28 | 25.11182 | 102.92629 | 6918 ft | 0 kts | 189° |
| 2026-05-04 09:29 | 25.11181 | 102.92628 | 6918 ft | 2 kts | 190° |
| 2026-05-04 09:29 | 25.11154 | 102.92623 | 6918 ft | 5 kts | 187° |
| 2026-05-04 09:30 | 25.11120 | 102.92634 | 6918 ft | 6 kts | 152° |
| 2026-05-04 09:30 | 25.11086 | 102.92672 | 6924 ft | 8 kts | 125° |
| 2026-05-04 09:30 | 25.11046 | 102.92731 | 6923 ft | 11 kts | 127° |
| 2026-05-04 09:30 | 25.10993 | 102.92807 | 6918 ft | 14 kts | 128° |
| 2026-05-04 09:31 | 25.10929 | 102.92897 | 6926 ft | 16 kts | 129° |
| 2026-05-04 09:31 | 25.10854 | 102.93002 | 6918 ft | 19 kts | 128° |
| 2026-05-04 09:31 | 25.10741 | 102.93073 | 6916 ft | 20 kts | 163° |
| 2026-05-04 09:31 | 25.10632 | 102.93162 | 6920 ft | 21 kts | 129° |
| 2026-05-04 09:32 | 25.10535 | 102.93295 | 6917 ft | 23 kts | 128° |
| 2026-05-04 09:32 | 25.10474 | 102.93398 | 6904 ft | 11 kts | 103° |
| 2026-05-04 09:34 | 25.10369 | 102.93499 | 6902 ft | 0 kts | 259° |